Time;durP1;ratioP1;P1;durP2;ratioP2;P2;SDS_P1;SDS_P2;PMS_P1;PMS_P2;Temp;Humidity;BMP_temperature;BMP_pressure;BME280_temperature;BME280_humidity;BME280_pressure;Samples;Min_cycle;Max_cycle;Signal;HPM_P1;HPM_P2
2024/03/05 00:00:37;;;;;;;17.85;9.63;;;10.90;99.90;;;;;;10016629;28;20033;-74
2024/03/05 00:05:28;;;;;;;19.10;9.23;;;10.90;99.90;;;;;;10015269;28;20042;-74
2024/03/05 00:10:19;;;;;;;19.30;9.13;;;10.80;99.90;;;;;;10015379;28;20080;-75
2024/03/05 00:15:10;;;;;;;18.63;8.45;;;10.80;99.90;;;;;;10016291;28;20399;-74
2024/03/05 00:20:00;;;;;;;16.30;8.77;;;10.70;99.90;;;;;;10013870;28;20026;-75
2024/03/05 00:24:51;;;;;;;16.48;8.45;;;10.80;99.90;;;;;;10017131;28;20034;-73
2024/03/05 00:29:42;;;;;;;26.15;10.13;;;10.80;99.90;;;;;;10019030;28;20041;-74
2024/03/05 00:34:32;;;;;;;20.25;10.73;;;10.80;99.90;;;;;;10026769;28;20117;-73
2024/03/05 00:39:23;;;;;;;16.98;8.55;;;10.80;99.90;;;;;;10024576;28;20025;-73
2024/03/05 00:44:16;;;;;;;16.98;9.30;;;10.80;99.90;;;;;;10021350;28;20624;-73
2024/03/05 00:49:07;;;;;;;19.25;8.45;;;10.90;99.90;;;;;;10021569;28;20053;-73
2024/03/05 00:53:58;;;;;;;17.45;9.10;;;10.80;99.90;;;;;;10021077;28;20022;-73
2024/03/05 00:58:50;;;;;;;14.63;8.00;;;10.80;99.90;;;;;;10024413;28;20060;-73
2024/03/05 01:03:40;;;;;;;16.80;8.85;;;10.80;99.90;;;;;;10015719;28;20598;-74
2024/03/05 01:08:31;;;;;;;19.35;9.30;;;10.80;99.90;;;;;;10019835;28;20052;-73
2024/03/05 01:13:22;;;;;;;18.95;9.88;;;10.80;99.90;;;;;;10019993;28;20036;-73
2024/03/05 01:18:13;;;;;;;24.92;10.80;;;10.80;99.90;;;;;;10019050;28;20400;-73
2024/03/05 01:23:03;;;;;;;21.98;10.00;;;10.80;99.90;;;;;;10019759;28;20034;-73
2024/03/05 01:27:54;;;;;;;20.85;10.13;;;10.90;99.90;;;;;;10019766;28;20073;-73
2024/03/05 01:32:46;;;;;;;21.48;11.07;;;10.80;99.90;;;;;;10019646;28;20589;-74
2024/03/05 01:37:38;;;;;;;17.35;8.60;;;10.80;99.90;;;;;;10018435;28;20022;-73
2024/03/05 01:42:28;;;;;;;22.88;9.73;;;10.80;99.90;;;;;;10017934;28;20037;-73
2024/03/05 01:47:20;;;;;;;20.55;9.20;;;10.80;99.90;;;;;;10011389;28;20281;-73
2024/03/05 01:52:11;;;;;;;24.33;9.48;;;10.80;99.90;;;;;;10022311;28;20072;-74
2024/03/05 01:57:03;;;;;;;18.63;10.13;;;10.80;99.90;;;;;;10018571;28;20056;-73
2024/03/05 02:01:56;;;;;;;17.70;8.73;;;10.80;99.90;;;;;;10012018;28;20117;-73
2024/03/05 02:06:48;;;;;;;17.88;9.30;;;10.70;99.90;;;;;;10018220;28;20630;-73
2024/03/05 02:11:42;;;;;;;25.95;10.40;;;10.70;99.90;;;;;;10018779;28;20454;-73
2024/03/05 02:16:34;;;;;;;20.60;10.13;;;10.70;99.90;;;;;;10017921;28;20026;-73
2024/03/05 02:21:25;;;;;;;21.08;10.15;;;10.70;99.90;;;;;;10018170;28;20026;-73
2024/03/05 02:26:20;;;;;;;22.17;11.52;;;10.70;99.90;;;;;;10017439;28;20049;-73
2024/03/05 02:31:11;;;;;;;22.20;10.48;;;10.70;99.90;;;;;;10017832;28;20052;-73
2024/03/05 02:36:02;;;;;;;20.48;10.75;;;10.80;99.90;;;;;;10017264;28;20117;-73
2024/03/05 02:40:53;;;;;;;16.95;10.68;;;10.80;99.90;;;;;;10017587;28;20022;-73
2024/03/05 02:45:44;;;;;;;18.65;11.07;;;10.70;99.90;;;;;;10017018;28;20057;-74
2024/03/05 02:50:35;;;;;;;18.92;10.18;;;10.80;99.90;;;;;;10024209;28;20069;-72
2024/03/05 02:55:25;;;;;;;19.00;10.35;;;10.70;99.90;;;;;;10010795;28;20034;-75
2024/03/05 03:00:19;;;;;;;21.13;9.75;;;10.60;99.90;;;;;;10013848;28;20041;-73
2024/03/05 03:05:10;;;;;;;18.23;8.57;;;10.70;99.90;;;;;;10016212;28;20026;-73
2024/03/05 03:10:00;;;;;;;24.52;12.05;;;10.70;99.90;;;;;;10016779;28;20029;-72
2024/03/05 03:14:51;;;;;;;22.50;9.50;;;10.70;99.90;;;;;;10015566;28;20531;-73
2024/03/05 03:19:43;;;;;;;24.02;11.60;;;10.70;99.90;;;;;;10015191;28;20128;-73
2024/03/05 03:24:33;;;;;;;21.38;10.73;;;10.60;99.90;;;;;;10017310;28;20018;-73
2024/03/05 03:29:26;;;;;;;25.10;10.48;;;10.70;99.90;;;;;;10015657;28;20064;-73
2024/03/05 03:34:17;;;;;;;24.65;10.23;;;10.70;99.90;;;;;;10015784;28;20018;-73
2024/03/05 03:39:10;;;;;;;21.42;10.63;;;10.70;99.90;;;;;;10016136;28;20041;-73
2024/03/05 03:44:01;;;;;;;19.02;9.77;;;10.60;99.90;;;;;;10015896;28;20056;-74
2024/03/05 03:48:52;;;;;;;18.80;8.30;;;10.60;99.90;;;;;;10023586;28;20045;-73
2024/03/05 03:53:43;;;;;;;20.77;9.35;;;10.50;99.90;;;;;;10003596;28;20026;-74
2024/03/05 03:58:34;;;;;;;24.48;11.25;;;10.60;99.90;;;;;;10016378;28;20026;-72
2024/03/05 04:03:24;;;;;;;17.85;9.90;;;10.50;99.90;;;;;;10024336;28;20109;-74
2024/03/05 04:08:15;;;;;;;19.23;10.70;;;10.50;99.90;;;;;;10022450;28;20108;-75
2024/03/05 04:13:06;;;;;;;19.30;10.90;;;10.50;99.90;;;;;;10022757;28;20100;-73
2024/03/05 04:17:57;;;;;;;21.45;10.02;;;10.50;99.90;;;;;;10023484;28;20092;-73
2024/03/05 04:22:48;;;;;;;17.52;9.95;;;10.40;99.90;;;;;;10022696;28;20022;-73
2024/03/05 04:27:45;;;;;;;18.92;9.73;;;10.40;99.90;;;;;;10021960;28;20046;-74
2024/03/05 04:32:40;;;;;;;17.45;8.48;;;10.40;99.90;;;;;;10020855;28;20044;-74
2024/03/05 04:37:31;;;;;;;15.50;9.03;;;10.40;99.90;;;;;;10017410;28;20482;-73
2024/03/05 04:42:24;;;;;;;18.75;9.75;;;10.30;99.90;;;;;;10020736;28;20144;-73
2024/03/05 04:47:15;;;;;;;13.85;8.13;;;10.40;99.90;;;;;;10019888;28;20120;-72
2024/03/05 04:52:07;;;;;;;18.40;8.63;;;10.20;99.90;;;;;;10020699;28;20597;-72
2024/03/05 04:56:57;;;;;;;18.27;8.13;;;10.10;99.90;;;;;;10021271;28;20038;-72
2024/03/05 05:01:48;;;;;;;16.10;7.88;;;10.20;99.90;;;;;;10021131;28;20542;-72
2024/03/05 05:06:39;;;;;;;19.70;9.95;;;10.20;99.90;;;;;;10020435;28;20568;-73
2024/03/05 05:11:29;;;;;;;18.25;9.45;;;10.20;99.90;;;;;;10020407;28;20014;-73
2024/03/05 05:16:20;;;;;;;18.75;9.25;;;10.20;99.90;;;;;;10018796;28;20030;-72
2024/03/05 05:21:12;;;;;;;16.48;9.25;;;10.10;99.90;;;;;;10018907;28;20132;-73
2024/03/05 05:26:03;;;;;;;16.80;9.07;;;10.20;99.90;;;;;;10019532;28;20026;-72
2024/03/05 05:30:53;;;;;;;15.13;10.60;;;10.20;99.90;;;;;;10020090;28;20033;-73
2024/03/05 05:35:45;;;;;;;20.20;9.57;;;10.20;99.90;;;;;;10021218;28;20044;-72
2024/03/05 05:40:36;;;;;;;16.33;9.05;;;10.20;99.90;;;;;;10020794;28;20034;-73
2024/03/05 05:45:26;;;;;;;17.63;9.93;;;10.20;99.90;;;;;;10017855;28;20037;-72
2024/03/05 05:50:18;;;;;;;17.80;9.35;;;10.20;99.90;;;;;;10019019;28;20038;-73
2024/03/05 05:55:09;;;;;;;20.83;9.30;;;10.20;99.90;;;;;;10018789;28;20574;-73
2024/03/05 05:59:59;;;;;;;21.55;11.48;;;10.10;99.90;;;;;;10018747;28;20105;-73
2024/03/05 06:04:50;;;;;;;21.58;9.43;;;10.10;99.90;;;;;;10025043;28;20053;-73
2024/03/05 06:09:40;;;;;;;14.27;9.02;;;10.10;99.90;;;;;;10016289;28;20034;-73
2024/03/05 06:14:31;;;;;;;17.58;9.02;;;10.10;99.90;;;;;;10017718;28;20491;-73
2024/03/05 06:19:22;;;;;;;16.85;9.43;;;10.10;99.90;;;;;;10018134;28;20026;-72
2024/03/05 06:24:13;;;;;;;18.10;8.68;;;10.20;99.90;;;;;;10010458;28;20417;-72
2024/03/05 06:29:06;;;;;;;19.98;9.23;;;10.20;99.90;;;;;;10016251;28;20041;-72
2024/03/05 06:33:57;;;;;;;18.17;8.95;;;10.20;99.90;;;;;;10020699;28;20076;-73
2024/03/05 06:38:47;;;;;;;19.25;8.30;;;10.20;99.90;;;;;;10017407;28;20030;-72
2024/03/05 06:43:38;;;;;;;16.85;8.80;;;10.20;99.90;;;;;;10017031;28;20077;-72
2024/03/05 06:48:30;;;;;;;15.30;9.48;;;10.20;99.90;;;;;;10016618;28;20036;-73
2024/03/05 06:58:31;;;;;;;20.15;10.50;;;10.20;99.90;;;;;;10017091;28;20103;-73
2024/03/05 07:03:22;;;;;;;15.48;8.80;;;10.20;99.90;;;;;;10016267;28;20065;-73
2024/03/05 07:08:14;;;;;;;16.98;9.55;;;10.20;99.90;;;;;;10015189;28;20056;-73
2024/03/05 07:13:08;;;;;;;14.20;8.45;;;10.20;99.90;;;;;;10016015;28;20100;-71
2024/03/05 07:17:59;;;;;;;15.80;8.73;;;10.20;99.90;;;;;;10006982;28;20029;-73
2024/03/05 07:22:51;;;;;;;19.05;8.95;;;10.20;99.90;;;;;;10016153;28;20022;-72
2024/03/05 07:27:46;;;;;;;16.77;8.15;;;10.20;99.90;;;;;;10005473;28;20054;-73
2024/03/05 07:32:38;;;;;;;15.90;8.13;;;10.20;99.90;;;;;;10005993;28;20061;-73
2024/03/05 07:37:28;;;;;;;16.00;8.75;;;10.20;99.90;;;;;;10012949;28;20040;-73
2024/03/05 07:42:19;;;;;;;12.27;7.80;;;10.20;99.90;;;;;;10026069;28;20033;-73
2024/03/05 07:47:10;;;;;;;15.20;9.23;;;10.20;99.90;;;;;;10023730;28;20042;-73
2024/03/05 07:52:00;;;;;;;16.30;7.75;;;10.20;99.90;;;;;;10023382;28;20066;-74
2024/03/05 07:56:51;;;;;;;17.60;7.38;;;10.20;99.90;;;;;;10021844;28;20033;-73
2024/03/05 08:01:42;;;;;;;13.52;6.78;;;10.20;99.90;;;;;;10022265;28;20558;-73
2024/03/05 08:06:33;;;;;;;11.68;6.10;;;10.20;99.90;;;;;;10023633;28;20038;-73
2024/03/05 08:11:23;;;;;;;6.43;3.95;;;10.30;99.90;;;;;;10024041;28;20026;-73
2024/03/05 08:16:14;;;;;;;6.00;3.75;;;10.20;99.90;;;;;;10009933;28;20034;-72
2024/03/05 08:21:05;;;;;;;4.57;2.17;;;10.20;99.90;;;;;;10023738;28;20026;-73
2024/03/05 08:25:55;;;;;;;4.90;2.55;;;10.20;99.90;;;;;;10023522;28;20038;-73
2024/03/05 08:30:46;;;;;;;3.40;1.98;;;10.20;99.90;;;;;;10022162;28;20033;-73
2024/03/05 08:35:36;;;;;;;3.00;2.08;;;10.30;99.90;;;;;;10022575;28;20041;-72
2024/03/05 08:40:32;;;;;;;5.85;2.72;;;10.20;99.90;;;;;;10021535;28;20032;-73
2024/03/05 08:45:23;;;;;;;4.97;2.67;;;10.30;99.90;;;;;;10020986;28;20058;-73
2024/03/05 08:50:15;;;;;;;7.15;3.45;;;10.30;99.90;;;;;;10021192;28;20547;-73
2024/03/05 08:55:08;;;;;;;10.15;5.20;;;10.40;99.90;;;;;;10016722;28;20022;-73
2024/03/05 09:00:02;;;;;;;9.18;4.55;;;10.40;99.90;;;;;;10014187;28;20022;-73
2024/03/05 09:04:52;;;;;;;9.50;5.75;;;10.30;99.90;;;;;;10032750;28;20033;-73
2024/03/05 09:09:44;;;;;;;10.73;5.95;;;10.30;99.90;;;;;;10019496;28;20045;-73
2024/03/05 09:14:34;;;;;;;12.70;5.25;;;10.40;99.90;;;;;;10020678;28;20030;-75
2024/03/05 09:19:25;;;;;;;10.82;6.03;;;10.30;99.90;;;;;;10021409;28;20018;-73
2024/03/05 09:24:16;;;;;;;10.40;5.25;;;10.30;99.90;;;;;;10024718;28;20037;-74
2024/03/05 09:29:07;;;;;;;11.57;5.82;;;10.40;99.90;;;;;;10019491;28;20437;-72
2024/03/05 09:33:59;;;;;;;9.82;4.75;;;10.40;99.90;;;;;;10020331;28;20041;-75
2024/03/05 09:38:50;;;;;;;12.38;5.88;;;10.40;99.90;;;;;;10012920;28;20032;-74
2024/03/05 09:43:41;;;;;;;10.52;5.53;;;10.50;99.90;;;;;;10018536;28;20609;-73
2024/03/05 09:48:33;;;;;;;11.73;6.47;;;10.60;99.90;;;;;;10020156;28;20041;-74
2024/03/05 09:53:24;;;;;;;8.07;3.83;;;10.70;99.90;;;;;;10019742;28;20129;-75
2024/03/05 09:58:22;;;;;;;5.95;3.22;;;10.70;99.90;;;;;;10019334;28;20045;-74
2024/03/05 10:03:13;;;;;;;6.13;3.58;;;10.70;99.90;;;;;;10020829;28;20024;-73
2024/03/05 10:08:05;;;;;;;5.07;3.15;;;10.70;99.90;;;;;;10015264;28;20030;-73
2024/03/05 10:12:55;;;;;;;5.20;2.58;;;10.70;99.90;;;;;;10017627;28;20161;-74
2024/03/05 10:17:52;;;;;;;3.90;2.30;;;10.70;99.90;;;;;;10022012;28;20560;-73
2024/03/05 10:22:51;;;;;;;5.80;2.70;;;10.70;99.90;;;;;;10018873;28;20060;-73
2024/03/05 10:27:45;;;;;;;4.82;2.80;;;10.60;99.90;;;;;;10015468;28;20069;-73
2024/03/05 10:32:36;;;;;;;4.72;2.67;;;10.50;99.90;;;;;;10015693;28;20475;-73
2024/03/05 10:37:28;;;;;;;2.95;2.03;;;10.50;99.90;;;;;;10017153;28;20123;-72
2024/03/05 10:42:19;;;;;;;3.88;2.65;;;10.50;99.90;;;;;;10017041;28;20472;-73
2024/03/05 10:47:11;;;;;;;5.03;2.88;;;10.50;99.90;;;;;;10018504;28;20038;-73
2024/03/05 10:52:03;;;;;;;4.90;2.38;;;10.50;99.90;;;;;;10016847;28;20448;-74
2024/03/05 10:56:55;;;;;;;4.88;2.95;;;10.40;99.90;;;;;;10017335;28;20761;-74
2024/03/05 11:01:46;;;;;;;4.78;2.58;;;10.30;99.90;;;;;;9999718;28;20320;-73
2024/03/05 11:06:40;;;;;;;6.30;3.28;;;10.30;99.90;;;;;;10025821;28;20506;-73
2024/03/05 11:11:31;;;;;;;4.43;2.83;;;10.40;99.90;;;;;;10017103;28;20560;-73
2024/03/05 11:16:22;;;;;;;3.67;2.42;;;10.50;99.90;;;;;;10018583;28;20042;-73
2024/03/05 11:21:15;;;;;;;5.43;2.55;;;10.60;99.90;;;;;;10016952;28;20527;-73
2024/03/05 11:26:07;;;;;;;4.18;2.42;;;10.60;99.90;;;;;;10016691;28;20398;-73
2024/03/05 11:31:17;;;;;;;3.63;2.90;;;10.50;99.90;;;;;;10017430;28;20040;-73
2024/03/05 11:36:22;;;;;;;7.72;3.65;;;10.50;99.90;;;;;;10016695;28;20041;-73
2024/03/05 11:41:23;;;;;;;4.00;2.28;;;10.50;99.90;;;;;;10019941;28;20026;-74
2024/03/05 11:46:48;;;;;;;3.15;2.45;;;10.50;99.90;;;;;;10023664;28;20072;-74
2024/03/05 11:51:40;;;;;;;4.32;2.60;;;10.50;99.90;;;;;;10017318;28;20118;-74
2024/03/05 11:56:31;;;;;;;5.00;2.92;;;10.60;99.90;;;;;;10015141;28;20612;-74
2024/03/05 12:01:23;;;;;;;5.28;2.97;;;10.70;99.90;;;;;;10007233;28;20028;-73
2024/03/05 12:06:17;;;;;;;5.45;3.10;;;11.00;99.90;;;;;;10016563;28;20022;-74
2024/03/05 12:11:11;;;;;;;5.18;2.65;;;11.20;99.90;;;;;;10020983;28;20035;-75
2024/03/05 12:16:13;;;;;;;8.68;3.85;;;11.30;99.90;;;;;;10014571;28;20368;-74
2024/03/05 12:21:06;;;;;;;3.53;2.30;;;11.30;99.90;;;;;;10014354;28;20044;-74
2024/03/05 12:25:58;;;;;;;3.75;1.83;;;11.40;99.90;;;;;;10027385;28;20105;-73
2024/03/05 12:30:51;;;;;;;1.73;1.42;;;11.60;99.90;;;;;;10022957;28;20132;-76
2024/03/05 12:35:49;;;;;;;3.40;1.58;;;11.60;99.90;;;;;;10022542;28;20030;-74
2024/03/05 12:40:41;;;;;;;1.60;1.02;;;11.70;99.90;;;;;;10021852;28;20026;-74
2024/03/05 12:45:33;;;;;;;1.90;0.98;;;11.70;99.90;;;;;;10021370;28;20423;-74
2024/03/05 12:50:24;;;;;;;3.38;1.15;;;11.80;99.90;;;;;;10022479;28;20053;-74
2024/03/05 12:55:15;;;;;;;2.72;0.95;;;11.90;99.90;;;;;;10013857;28;20518;-74
2024/03/05 13:00:12;;;;;;;4.57;1.42;;;12.10;99.90;;;;;;10016717;28;20026;-74
2024/03/05 13:05:04;;;;;;;3.55;1.20;;;12.10;99.90;;;;;;10021205;28;20346;-73
2024/03/05 13:09:54;;;;;;;1.52;0.70;;;12.10;99.90;;;;;;10028386;28;20029;-74
2024/03/05 13:14:45;;;;;;;3.92;1.35;;;12.00;99.90;;;;;;10020100;28;20032;-74
2024/03/05 13:19:39;;;;;;;1.77;0.65;;;11.80;99.90;;;;;;10019232;28;20046;-72
2024/03/05 13:24:31;;;;;;;1.70;0.90;;;11.70;99.90;;;;;;10019809;28;20029;-72
2024/03/05 13:29:21;;;;;;;0.90;0.55;;;11.70;99.90;;;;;;10017573;28;20133;-71
2024/03/05 13:34:12;;;;;;;1.27;0.63;;;11.60;99.90;;;;;;10018892;28;20113;-73
2024/03/05 13:39:08;;;;;;;1.13;0.57;;;11.50;99.90;;;;;;10018571;28;20044;-72
2024/03/05 13:43:59;;;;;;;1.05;0.80;;;11.50;99.90;;;;;;10018515;28;20069;-72
2024/03/05 13:48:50;;;;;;;2.65;0.70;;;11.50;99.90;;;;;;10019066;28;20038;-73
2024/03/05 13:53:40;;;;;;;2.63;0.82;;;11.60;99.90;;;;;;10016168;28;20014;-72
2024/03/05 13:58:33;;;;;;;1.17;0.60;;;11.60;99.90;;;;;;10018355;28;20117;-73
2024/03/05 14:03:24;;;;;;;2.10;0.73;;;11.70;99.90;;;;;;10020763;28;20049;-72
2024/03/05 14:08:14;;;;;;;1.88;0.63;;;11.70;99.90;;;;;;10019362;28;20061;-74
2024/03/05 14:13:13;;;;;;;1.67;0.77;;;11.80;99.90;;;;;;10017954;28;20124;-72
2024/03/05 14:18:04;;;;;;;1.33;0.80;;;11.70;99.90;;;;;;10023176;28;20033;-72
2024/03/05 14:22:54;;;;;;;1.10;0.32;;;11.70;99.90;;;;;;10017521;28;20036;-74
2024/03/05 14:27:48;;;;;;;0.80;0.45;;;11.60;99.90;;;;;;10016930;28;20168;-73
2024/03/05 14:32:39;;;;;;;0.65;0.40;;;11.30;99.90;;;;;;10012033;28;20083;-73
2024/03/05 14:37:30;;;;;;;1.00;0.50;;;11.20;99.90;;;;;;10017877;28;20526;-73
2024/03/05 14:42:21;;;;;;;0.32;0.32;;;11.70;99.90;;;;;;10016689;28;20029;-75
2024/03/05 14:47:12;;;;;;;0.52;0.30;;;12.30;99.90;;;;;;10012179;28;20471;-73
2024/03/05 14:52:04;;;;;;;0.93;0.38;;;12.70;99.90;;;;;;10015596;28;20060;-73
2024/03/05 14:56:54;;;;;;;0.95;0.50;;;13.10;99.90;;;;;;10016892;28;20028;-73
2024/03/05 15:01:48;;;;;;;0.45;0.30;;;13.40;99.90;;;;;;10015989;28;20104;-73
2024/03/05 15:06:39;;;;;;;0.68;0.43;;;13.60;99.90;;;;;;10016316;28;20475;-74
2024/03/05 15:11:29;;;;;;;0.95;0.40;;;13.60;99.90;;;;;;10016100;28;20025;-72
2024/03/05 15:16:20;;;;;;;0.82;0.40;;;13.80;99.90;;;;;;10016594;28;20022;-73
2024/03/05 15:21:14;;;;;;;1.63;0.40;;;14.00;99.90;;;;;;10014588;28;20034;-73
2024/03/05 15:26:05;;;;;;;0.93;0.55;;;13.50;99.90;;;;;;10016090;28;20022;-74
2024/03/05 15:30:56;;;;;;;1.85;0.50;;;13.30;99.90;;;;;;10016061;28;20121;-73
2024/03/05 15:35:47;;;;;;;0.68;0.47;;;14.00;99.90;;;;;;10016182;28;20620;-72
2024/03/05 15:40:37;;;;;;;1.10;0.60;;;14.00;99.90;;;;;;10015976;28;20041;-74
2024/03/05 15:45:29;;;;;;;1.63;0.90;;;13.80;99.90;;;;;;10015982;28;20018;-73
2024/03/05 15:50:22;;;;;;;0.57;0.57;;;13.80;99.90;;;;;;10014329;28;20431;-73
2024/03/05 15:55:18;;;;;;;1.33;0.82;;;13.70;99.90;;;;;;10016944;28;20033;-73
2024/03/05 16:00:11;;;;;;;1.35;0.90;;;13.50;99.90;;;;;;10027636;28;20026;-73
2024/03/05 16:05:02;;;;;;;0.75;0.38;;;13.40;99.90;;;;;;10021263;28;20030;-73
2024/03/05 16:09:58;;;;;;;1.70;0.75;;;13.20;99.90;;;;;;10023026;28;20037;-72
2024/03/05 16:14:52;;;;;;;2.03;0.60;;;13.00;99.90;;;;;;10023206;28;20029;-73
2024/03/05 16:19:43;;;;;;;1.13;0.68;;;12.90;99.90;;;;;;10013068;28;20491;-72
2024/03/05 16:24:37;;;;;;;0.60;0.60;;;12.80;99.90;;;;;;10014314;28;20033;-73
2024/03/05 16:29:27;;;;;;;1.17;0.70;;;12.60;99.90;;;;;;10021715;28;20064;-73
2024/03/05 16:34:18;;;;;;;1.08;0.95;;;12.50;99.90;;;;;;10021637;28;20034;-73
2024/03/05 16:39:11;;;;;;;1.67;1.02;;;12.40;99.90;;;;;;10021680;28;20084;-73
2024/03/05 16:44:02;;;;;;;2.00;1.00;;;12.40;99.90;;;;;;10021564;28;20042;-73
2024/03/05 16:48:53;;;;;;;1.80;0.88;;;12.30;99.90;;;;;;10021655;28;20041;-72
2024/03/05 16:53:43;;;;;;;1.38;0.60;;;12.20;99.90;;;;;;10027401;28;20025;-73
2024/03/05 16:58:37;;;;;;;1.45;0.88;;;12.20;99.90;;;;;;10021440;28;20028;-73
2024/03/05 17:03:34;;;;;;;2.92;0.85;;;12.20;99.90;;;;;;10021060;28;20123;-74
2024/03/05 17:08:26;;;;;;;2.97;1.20;;;12.20;99.90;;;;;;10021241;28;20052;-74
2024/03/05 17:13:25;;;;;;;2.80;1.50;;;12.10;99.90;;;;;;10020385;28;20369;-74
2024/03/05 17:18:16;;;;;;;3.90;1.23;;;12.10;99.90;;;;;;10010961;28;20416;-74
2024/03/05 17:23:08;;;;;;;3.25;1.20;;;12.00;99.90;;;;;;10020085;28;20026;-74
2024/03/05 17:28:00;;;;;;;1.00;0.90;;;12.00;99.90;;;;;;10019558;28;20494;-74
2024/03/05 17:32:51;;;;;;;2.70;1.55;;;12.00;99.90;;;;;;10019177;28;20014;-74
2024/03/05 17:37:43;;;;;;;2.33;1.05;;;12.00;99.90;;;;;;10019807;28;20030;-73
2024/03/05 17:42:38;;;;;;;2.85;1.25;;;12.00;99.90;;;;;;10019101;28;20441;-73
2024/03/05 17:47:29;;;;;;;2.60;1.13;;;12.00;99.90;;;;;;10018450;28;20506;-73
2024/03/05 17:52:26;;;;;;;4.22;1.77;;;11.90;99.90;;;;;;10026300;28;20364;-72
2024/03/05 17:57:17;;;;;;;1.10;0.95;;;12.00;99.90;;;;;;10011451;28;20030;-72
2024/03/05 18:02:08;;;;;;;2.05;1.40;;;12.00;99.90;;;;;;10019277;28;20034;-72
2024/03/05 18:07:01;;;;;;;3.42;0.90;;;11.80;99.90;;;;;;10017856;28;20434;-72
2024/03/05 18:11:52;;;;;;;2.15;0.50;;;11.30;99.90;;;;;;10016768;28;20358;-73
2024/03/05 18:16:46;;;;;;;0.28;0.28;;;11.00;99.90;;;;;;10006088;28;20064;-74
2024/03/05 18:21:37;;;;;;;1.67;0.68;;;10.90;99.90;;;;;;10016466;28;20583;-73
2024/03/05 18:26:28;;;;;;;2.75;0.63;;;10.90;99.90;;;;;;10017624;28;20157;-73
2024/03/05 18:31:19;;;;;;;1.45;0.77;;;11.00;99.90;;;;;;10017454;28;20083;-74
2024/03/05 18:36:10;;;;;;;2.65;0.75;;;11.10;99.90;;;;;;10017706;28;20017;-73
2024/03/05 18:41:02;;;;;;;2.42;1.52;;;11.20;99.90;;;;;;10017039;28;20037;-74
2024/03/05 18:45:52;;;;;;;1.23;0.80;;;11.20;99.90;;;;;;10028219;28;20105;-74
2024/03/05 18:50:44;;;;;;;1.70;1.17;;;11.20;99.90;;;;;;10017168;28;20132;-73
2024/03/05 18:55:35;;;;;;;1.95;0.80;;;11.30;99.90;;;;;;10017157;28;20057;-74
2024/03/05 19:00:27;;;;;;;1.98;1.00;;;11.30;99.90;;;;;;10015800;28;20176;-74
2024/03/05 19:05:18;;;;;;;2.15;0.60;;;11.30;99.90;;;;;;10015344;28;20050;-74
2024/03/05 19:10:10;;;;;;;1.60;0.75;;;11.40;99.90;;;;;;10013692;28;20037;-74
2024/03/05 19:15:02;;;;;;;2.85;1.58;;;11.40;99.90;;;;;;10015000;28;20021;-74
2024/03/05 19:19:53;;;;;;;3.25;1.65;;;11.40;99.90;;;;;;10015844;28;20121;-74
2024/03/05 19:24:44;;;;;;;3.25;1.38;;;11.40;99.90;;;;;;10025151;28;20117;-71
2024/03/05 19:29:34;;;;;;;3.70;1.65;;;11.40;99.90;;;;;;10018379;28;20484;-71
2024/03/05 19:34:26;;;;;;;4.00;1.42;;;11.40;99.90;;;;;;10028895;28;20065;-72
2024/03/05 19:39:16;;;;;;;2.55;1.60;;;11.50;99.90;;;;;;10028909;28;20508;-72
2024/03/05 19:44:08;;;;;;;2.78;1.70;;;11.40;99.90;;;;;;10029586;28;20057;-73
2024/03/05 19:48:58;;;;;;;2.10;1.60;;;11.40;99.90;;;;;;10028222;28;20096;-74
2024/03/05 19:53:49;;;;;;;2.65;1.63;;;11.40;99.90;;;;;;10028256;28;20579;-73
2024/03/05 19:58:40;;;;;;;5.25;1.90;;;11.40;99.90;;;;;;10028691;28;20037;-73
2024/03/05 20:03:30;;;;;;;5.03;2.10;;;11.30;99.90;;;;;;10022973;28;20435;-73
2024/03/05 20:08:21;;;;;;;4.22;2.60;;;11.30;99.90;;;;;;10017142;28;20112;-73
2024/03/05 20:13:11;;;;;;;5.93;2.47;;;11.20;99.90;;;;;;10026795;28;20502;-73
2024/03/05 20:18:04;;;;;;;4.47;2.13;;;11.20;99.90;;;;;;10028382;28;20493;-73
2024/03/05 20:22:55;;;;;;;7.65;2.95;;;11.20;99.90;;;;;;10027861;28;20124;-73
2024/03/05 20:27:49;;;;;;;6.28;2.75;;;11.20;99.90;;;;;;10028319;28;20046;-72
2024/03/05 20:32:44;;;;;;;9.18;3.30;;;11.20;99.90;;;;;;10028701;28;20034;-72
2024/03/05 20:37:36;;;;;;;4.82;3.05;;;11.10;99.90;;;;;;10025897;28;20131;-72
2024/03/05 20:42:27;;;;;;;6.85;3.45;;;11.10;99.90;;;;;;10022708;28;20029;-73
2024/03/05 20:47:19;;;;;;;6.78;3.03;;;11.00;99.90;;;;;;10018746;28;20096;-74
2024/03/05 20:52:09;;;;;;;4.15;1.98;;;11.10;99.90;;;;;;10018184;28;20034;-72
2024/03/05 20:57:00;;;;;;;5.13;2.05;;;11.10;99.90;;;;;;10021674;28;20129;-73
2024/03/05 21:01:52;;;;;;;4.38;2.50;;;11.10;99.90;;;;;;10020487;28;20041;-73
2024/03/05 21:06:44;;;;;;;2.72;2.20;;;11.10;99.90;;;;;;10015474;28;20046;-73
2024/03/05 21:11:35;;;;;;;5.00;2.00;;;11.10;99.90;;;;;;10020438;28;20026;-73
2024/03/05 21:16:26;;;;;;;5.07;1.92;;;11.20;99.90;;;;;;10018886;28;20376;-72
2024/03/05 21:21:16;;;;;;;4.18;1.88;;;11.10;99.90;;;;;;10019111;28;20022;-72
2024/03/05 21:26:07;;;;;;;4.38;1.98;;;11.10;99.90;;;;;;10020003;28;20029;-74
2024/03/05 21:30:59;;;;;;;5.28;2.72;;;11.10;99.90;;;;;;10023015;28;20042;-73
2024/03/05 21:35:51;;;;;;;7.60;2.42;;;11.10;99.90;;;;;;10026679;28;20121;-73
2024/03/05 21:40:42;;;;;;;3.85;2.45;;;11.00;99.90;;;;;;10020164;28;20033;-73
2024/03/05 21:45:33;;;;;;;5.75;3.15;;;11.00;99.90;;;;;;10022955;28;20014;-70
2024/03/05 21:50:23;;;;;;;4.85;2.83;;;11.00;99.90;;;;;;10019819;28;20038;-71
2024/03/05 21:55:15;;;;;;;5.53;3.38;;;10.90;99.90;;;;;;10018842;28;20034;-70
2024/03/05 22:00:10;;;;;;;4.90;3.15;;;10.90;99.90;;;;;;10013142;28;20030;-70
2024/03/05 22:05:01;;;;;;;5.03;3.65;;;10.90;99.90;;;;;;10017776;28;20516;-69
2024/03/05 22:09:52;;;;;;;6.30;3.17;;;10.90;99.90;;;;;;10021708;28;20038;-68
2024/03/05 22:14:42;;;;;;;5.05;2.50;;;10.90;99.90;;;;;;10025793;28;20556;-69
2024/03/05 22:19:33;;;;;;;4.63;3.25;;;10.90;99.90;;;;;;10018533;28;20033;-71
2024/03/05 22:24:24;;;;;;;4.88;2.65;;;11.00;99.90;;;;;;10017288;28;20412;-71
2024/03/05 22:29:14;;;;;;;4.95;3.17;;;11.00;99.90;;;;;;10018299;28;20046;-69
2024/03/05 22:34:05;;;;;;;4.25;2.83;;;11.00;99.90;;;;;;10026170;28;20026;-70
2024/03/05 22:38:56;;;;;;;3.42;2.30;;;11.00;99.90;;;;;;10017423;28;20030;-69
2024/03/05 22:43:48;;;;;;;4.47;2.95;;;11.00;99.90;;;;;;10016979;28;20053;-69
2024/03/05 22:48:38;;;;;;;4.30;2.60;;;11.00;99.90;;;;;;10017350;28;20037;-69
2024/03/05 22:53:29;;;;;;;4.90;2.50;;;11.00;99.90;;;;;;10022824;28;20458;-71
2024/03/05 22:58:20;;;;;;;4.47;3.03;;;11.00;99.90;;;;;;10012072;28;20120;-70
2024/03/05 23:03:11;;;;;;;4.55;2.90;;;11.00;99.90;;;;;;10014550;28;20025;-69
2024/03/05 23:08:02;;;;;;;2.53;1.85;;;11.00;99.90;;;;;;10019005;28;20045;-71
2024/03/05 23:12:55;;;;;;;5.47;2.60;;;11.00;99.90;;;;;;10002162;28;20120;-73
2024/03/05 23:17:46;;;;;;;3.45;2.45;;;10.90;99.90;;;;;;10017299;28;20415;-73
2024/03/05 23:22:38;;;;;;;4.53;1.98;;;11.00;99.90;;;;;;10013725;28;20040;-73
2024/03/05 23:27:29;;;;;;;4.47;2.05;;;10.90;99.90;;;;;;10013375;28;20064;-73
2024/03/05 23:32:19;;;;;;;5.72;3.38;;;10.90;99.90;;;;;;10013299;28;21432;-73
2024/03/05 23:37:10;;;;;;;6.15;3.35;;;10.90;99.90;;;;;;10019433;28;20642;-73
2024/03/05 23:42:00;;;;;;;6.55;3.67;;;10.80;99.90;;;;;;10015825;28;20117;-73
2024/03/05 23:46:54;;;;;;;6.28;3.17;;;10.80;99.90;;;;;;10015564;28;20042;-73
2024/03/05 23:51:45;;;;;;;8.75;3.63;;;10.80;99.90;;;;;;10013277;28;20034;-73
2024/03/05 23:56:37;;;;;;;5.80;3.78;;;10.70;99.90;;;;;;10014950;28;20030;-73
